sensor_id;sensor_type;location;lat;lon;timestamp;temperature;humidity
9760;DHT22;4919;48.792;9.202;2022-07-06T00:01:52;17.10;99.90
9760;DHT22;4919;48.792;9.202;2022-07-06T00:04:19;17.10;99.90
9760;DHT22;4919;48.792;9.202;2022-07-06T00:06:46;17.20;99.90
9760;DHT22;4919;48.792;9.202;2022-07-06T00:09:13;17.20;99.90
9760;DHT22;4919;48.792;9.202;2022-07-06T00:11:40;17.20;99.90
9760;DHT22;4919;48.792;9.202;2022-07-06T00:14:07;17.10;99.90
9760;DHT22;4919;48.792;9.202;2022-07-06T00:16:34;17.10;99.90
9760;DHT22;4919;48.792;9.202;2022-07-06T00:19:00;17.10;99.90
9760;DHT22;4919;48.792;9.202;2022-07-06T00:21:27;17.10;99.90
9760;DHT22;4919;48.792;9.202;2022-07-06T00:23:54;17.00;99.90
9760;DHT22;4919;48.792;9.202;2022-07-06T00:26:21;17.00;99.90
9760;DHT22;4919;48.792;9.202;2022-07-06T00:28:48;17.00;99.90
9760;DHT22;4919;48.792;9.202;2022-07-06T00:31:15;17.00;99.90
9760;DHT22;4919;48.792;9.202;2022-07-06T00:33:42;17.00;99.90
9760;DHT22;4919;48.792;9.202;2022-07-06T00:36:10;17.00;99.90
9760;DHT22;4919;48.792;9.202;2022-07-06T00:38:36;17.00;99.90
9760;DHT22;4919;48.792;9.202;2022-07-06T00:41:03;17.10;99.90
9760;DHT22;4919;48.792;9.202;2022-07-06T00:43:47;17.10;99.90
9760;DHT22;4919;48.792;9.202;2022-07-06T00:46:14;17.10;99.90
9760;DHT22;4919;48.792;9.202;2022-07-06T00:48:41;17.10;99.90
9760;DHT22;4919;48.792;9.202;2022-07-06T00:51:08;17.00;99.90
9760;DHT22;4919;48.792;9.202;2022-07-06T00:53:35;17.10;99.90
9760;DHT22;4919;48.792;9.202;2022-07-06T00:56:02;17.10;99.90
9760;DHT22;4919;48.792;9.202;2022-07-06T00:58:29;17.00;99.90
9760;DHT22;4919;48.792;9.202;2022-07-06T01:00:56;17.00;99.90
9760;DHT22;4919;48.792;9.202;2022-07-06T01:03:23;16.90;99.90
9760;DHT22;4919;48.792;9.202;2022-07-06T01:05:50;16.80;99.90
9760;DHT22;4919;48.792;9.202;2022-07-06T01:08:17;16.80;99.90
9760;DHT22;4919;48.792;9.202;2022-07-06T01:10:44;16.70;99.90
9760;DHT22;4919;48.792;9.202;2022-07-06T01:13:11;16.60;99.90
9760;DHT22;4919;48.792;9.202;2022-07-06T01:15:38;16.60;99.90
9760;DHT22;4919;48.792;9.202;2022-07-06T01:18:09;16.60;99.90
9760;DHT22;4919;48.792;9.202;2022-07-06T01:20:37;16.60;99.90
9760;DHT22;4919;48.792;9.202;2022-07-06T01:23:04;16.60;99.90
9760;DHT22;4919;48.792;9.202;2022-07-06T01:25:31;16.50;99.90
9760;DHT22;4919;48.792;9.202;2022-07-06T01:27:59;16.40;99.90
9760;DHT22;4919;48.792;9.202;2022-07-06T01:30:26;16.30;99.90
9760;DHT22;4919;48.792;9.202;2022-07-06T01:32:52;16.30;99.90
9760;DHT22;4919;48.792;9.202;2022-07-06T01:35:19;16.20;99.90
9760;DHT22;4919;48.792;9.202;2022-07-06T01:37:46;16.20;99.90
9760;DHT22;4919;48.792;9.202;2022-07-06T01:40:13;16.10;99.90
9760;DHT22;4919;48.792;9.202;2022-07-06T01:42:40;16.20;99.90
9760;DHT22;4919;48.792;9.202;2022-07-06T01:45:08;16.20;99.90
9760;DHT22;4919;48.792;9.202;2022-07-06T01:47:36;16.20;99.90
9760;DHT22;4919;48.792;9.202;2022-07-06T01:50:06;16.20;99.90
9760;DHT22;4919;48.792;9.202;2022-07-06T01:52:38;16.10;99.90
9760;DHT22;4919;48.792;9.202;2022-07-06T01:55:05;16.00;99.90
9760;DHT22;4919;48.792;9.202;2022-07-06T01:57:34;16.00;99.90
9760;DHT22;4919;48.792;9.202;2022-07-06T02:00:01;16.00;99.90
9760;DHT22;4919;48.792;9.202;2022-07-06T02:02:38;16.00;99.90
9760;DHT22;4919;48.792;9.202;2022-07-06T02:05:06;16.10;99.90
9760;DHT22;4919;48.792;9.202;2022-07-06T02:07:34;16.20;99.90
9760;DHT22;4919;48.792;9.202;2022-07-06T02:10:01;16.30;99.90
9760;DHT22;4919;48.792;9.202;2022-07-06T02:12:28;16.30;99.90
9760;DHT22;4919;48.792;9.202;2022-07-06T02:14:55;16.40;99.90
9760;DHT22;4919;48.792;9.202;2022-07-06T02:17:22;16.40;99.90
9760;DHT22;4919;48.792;9.202;2022-07-06T02:19:49;16.50;99.90
9760;DHT22;4919;48.792;9.202;2022-07-06T02:22:16;16.60;99.90
9760;DHT22;4919;48.792;9.202;2022-07-06T02:24:43;16.70;99.90
9760;DHT22;4919;48.792;9.202;2022-07-06T02:27:10;16.70;99.90
9760;DHT22;4919;48.792;9.202;2022-07-06T02:29:37;16.70;99.90
9760;DHT22;4919;48.792;9.202;2022-07-06T02:32:05;16.70;99.90
9760;DHT22;4919;48.792;9.202;2022-07-06T02:34:32;16.70;99.90
9760;DHT22;4919;48.792;9.202;2022-07-06T02:36:59;16.60;99.90
9760;DHT22;4919;48.792;9.202;2022-07-06T02:39:27;16.50;99.90
9760;DHT22;4919;48.792;9.202;2022-07-06T02:41:54;16.40;99.90
9760;DHT22;4919;48.792;9.202;2022-07-06T02:44:21;16.40;99.90
9760;DHT22;4919;48.792;9.202;2022-07-06T02:46:48;16.40;99.90
9760;DHT22;4919;48.792;9.202;2022-07-06T02:49:15;16.30;99.90
9760;DHT22;4919;48.792;9.202;2022-07-06T02:51:42;16.30;99.90
9760;DHT22;4919;48.792;9.202;2022-07-06T02:54:10;16.30;99.90
9760;DHT22;4919;48.792;9.202;2022-07-06T02:56:37;16.30;99.90
9760;DHT22;4919;48.792;9.202;2022-07-06T02:59:04;16.20;99.90
9760;DHT22;4919;48.792;9.202;2022-07-06T03:01:38;16.20;99.90
9760;DHT22;4919;48.792;9.202;2022-07-06T03:04:05;16.30;99.90
9760;DHT22;4919;48.792;9.202;2022-07-06T03:06:32;16.30;99.90
9760;DHT22;4919;48.792;9.202;2022-07-06T03:08:59;16.20;99.90
9760;DHT22;4919;48.792;9.202;2022-07-06T03:11:27;16.20;99.90
9760;DHT22;4919;48.792;9.202;2022-07-06T03:13:55;16.20;99.90
9760;DHT22;4919;48.792;9.202;2022-07-06T03:16:22;16.20;99.90
9760;DHT22;4919;48.792;9.202;2022-07-06T03:18:49;16.10;99.90
9760;DHT22;4919;48.792;9.202;2022-07-06T03:21:16;16.20;99.90
9760;DHT22;4919;48.792;9.202;2022-07-06T03:23:44;16.00;99.90
9760;DHT22;4919;48.792;9.202;2022-07-06T03:26:10;15.80;99.90
9760;DHT22;4919;48.792;9.202;2022-07-06T03:28:38;15.70;99.90
9760;DHT22;4919;48.792;9.202;2022-07-06T03:31:05;15.40;99.90
9760;DHT22;4919;48.792;9.202;2022-07-06T03:33:32;15.20;99.90
9760;DHT22;4919;48.792;9.202;2022-07-06T03:35:59;15.00;99.90
9760;DHT22;4919;48.792;9.202;2022-07-06T03:38:26;14.90;99.90
9760;DHT22;4919;48.792;9.202;2022-07-06T03:40:53;14.90;99.90
9760;DHT22;4919;48.792;9.202;2022-07-06T03:43:20;14.70;99.90
9760;DHT22;4919;48.792;9.202;2022-07-06T03:45:47;14.80;99.90
9760;DHT22;4919;48.792;9.202;2022-07-06T03:48:15;14.60;99.90
9760;DHT22;4919;48.792;9.202;2022-07-06T03:50:42;14.70;99.90
9760;DHT22;4919;48.792;9.202;2022-07-06T03:53:10;14.70;99.90
9760;DHT22;4919;48.792;9.202;2022-07-06T03:55:37;14.70;99.90
9760;DHT22;4919;48.792;9.202;2022-07-06T03:58:07;14.60;99.90
9760;DHT22;4919;48.792;9.202;2022-07-06T04:00:37;14.70;99.90
9760;DHT22;4919;48.792;9.202;2022-07-06T04:03:08;14.70;99.90
9760;DHT22;4919;48.792;9.202;2022-07-06T04:05:41;14.90;99.90
9760;DHT22;4919;48.792;9.202;2022-07-06T04:08:08;14.90;99.90
9760;DHT22;4919;48.792;9.202;2022-07-06T04:10:41;15.00;99.90
9760;DHT22;4919;48.792;9.202;2022-07-06T04:13:08;15.00;99.90
9760;DHT22;4919;48.792;9.202;2022-07-06T04:15:35;15.20;99.90
9760;DHT22;4919;48.792;9.202;2022-07-06T04:18:02;15.20;99.90
9760;DHT22;4919;48.792;9.202;2022-07-06T04:20:34;15.20;99.90
9760;DHT22;4919;48.792;9.202;2022-07-06T04:23:02;15.20;99.90
9760;DHT22;4919;48.792;9.202;2022-07-06T04:25:29;15.30;99.90
9760;DHT22;4919;48.792;9.202;2022-07-06T04:27:59;15.20;99.90
9760;DHT22;4919;48.792;9.202;2022-07-06T04:30:27;15.30;99.90
9760;DHT22;4919;48.792;9.202;2022-07-06T04:32:54;15.30;99.90
9760;DHT22;4919;48.792;9.202;2022-07-06T04:35:24;15.30;99.90
9760;DHT22;4919;48.792;9.202;2022-07-06T04:37:52;15.40;99.90
9760;DHT22;4919;48.792;9.202;2022-07-06T04:40:20;15.60;99.90
9760;DHT22;4919;48.792;9.202;2022-07-06T04:42:51;15.80;99.90
9760;DHT22;4919;48.792;9.202;2022-07-06T04:45:19;15.80;99.90
9760;DHT22;4919;48.792;9.202;2022-07-06T04:47:46;15.60;99.90
9760;DHT22;4919;48.792;9.202;2022-07-06T04:50:14;15.70;99.90
9760;DHT22;4919;48.792;9.202;2022-07-06T04:52:42;15.70;99.90
9760;DHT22;4919;48.792;9.202;2022-07-06T04:55:10;15.80;99.90
9760;DHT22;4919;48.792;9.202;2022-07-06T04:57:37;15.90;99.90
9760;DHT22;4919;48.792;9.202;2022-07-06T05:00:05;15.90;99.90
9760;DHT22;4919;48.792;9.202;2022-07-06T05:02:33;16.10;99.90
9760;DHT22;4919;48.792;9.202;2022-07-06T05:05:00;16.10;99.90
9760;DHT22;4919;48.792;9.202;2022-07-06T05:07:27;16.10;99.90
9760;DHT22;4919;48.792;9.202;2022-07-06T05:09:58;16.10;99.90
9760;DHT22;4919;48.792;9.202;2022-07-06T05:12:25;16.10;99.90
9760;DHT22;4919;48.792;9.202;2022-07-06T05:14:51;16.30;99.90
9760;DHT22;4919;48.792;9.202;2022-07-06T05:17:20;16.60;99.90
9760;DHT22;4919;48.792;9.202;2022-07-06T05:19:55;16.80;99.90
9760;DHT22;4919;48.792;9.202;2022-07-06T05:22:22;17.10;99.90
9760;DHT22;4919;48.792;9.202;2022-07-06T05:24:51;17.20;99.90
9760;DHT22;4919;48.792;9.202;2022-07-06T05:27:18;17.30;99.90
9760;DHT22;4919;48.792;9.202;2022-07-06T05:29:46;17.20;99.90
9760;DHT22;4919;48.792;9.202;2022-07-06T05:32:14;16.80;99.90
9760;DHT22;4919;48.792;9.202;2022-07-06T05:34:41;16.70;99.90
9760;DHT22;4919;48.792;9.202;2022-07-06T05:37:09;16.90;99.90
9760;DHT22;4919;48.792;9.202;2022-07-06T05:39:36;17.10;99.90
9760;DHT22;4919;48.792;9.202;2022-07-06T05:42:08;17.70;99.90
9760;DHT22;4919;48.792;9.202;2022-07-06T05:44:36;18.00;99.90
9760;DHT22;4919;48.792;9.202;2022-07-06T05:47:03;18.20;99.90
9760;DHT22;4919;48.792;9.202;2022-07-06T05:49:59;18.10;99.90
9760;DHT22;4919;48.792;9.202;2022-07-06T05:52:44;17.50;99.90
9760;DHT22;4919;48.792;9.202;2022-07-06T05:55:14;17.10;99.90
9760;DHT22;4919;48.792;9.202;2022-07-06T05:57:42;17.20;99.90
9760;DHT22;4919;48.792;9.202;2022-07-06T06:00:10;17.80;99.90
9760;DHT22;4919;48.792;9.202;2022-07-06T06:02:48;18.30;99.90
9760;DHT22;4919;48.792;9.202;2022-07-06T06:05:17;18.80;99.90
9760;DHT22;4919;48.792;9.202;2022-07-06T06:07:53;19.10;99.90
9760;DHT22;4919;48.792;9.202;2022-07-06T06:10:24;19.10;99.90
9760;DHT22;4919;48.792;9.202;2022-07-06T06:12:54;19.60;99.90
9760;DHT22;4919;48.792;9.202;2022-07-06T06:15:21;19.40;99.90
9760;DHT22;4919;48.792;9.202;2022-07-06T06:17:48;19.60;99.90
9760;DHT22;4919;48.792;9.202;2022-07-06T06:20:15;19.80;99.90
9760;DHT22;4919;48.792;9.202;2022-07-06T06:22:56;20.10;99.90
9760;DHT22;4919;48.792;9.202;2022-07-06T06:25:31;20.40;99.90
9760;DHT22;4919;48.792;9.202;2022-07-06T06:27:59;20.50;99.90
9760;DHT22;4919;48.792;9.202;2022-07-06T06:30:26;19.70;99.90
9760;DHT22;4919;48.792;9.202;2022-07-06T06:33:16;18.80;99.90
9760;DHT22;4919;48.792;9.202;2022-07-06T06:35:45;19.50;99.90
9760;DHT22;4919;48.792;9.202;2022-07-06T06:38:13;19.90;99.90
9760;DHT22;4919;48.792;9.202;2022-07-06T06:40:40;20.10;99.90
9760;DHT22;4919;48.792;9.202;2022-07-06T06:43:07;20.40;99.90
9760;DHT22;4919;48.792;9.202;2022-07-06T06:45:42;19.90;99.90
9760;DHT22;4919;48.792;9.202;2022-07-06T06:48:09;20.00;99.90
9760;DHT22;4919;48.792;9.202;2022-07-06T06:50:47;20.60;99.90
9760;DHT22;4919;48.792;9.202;2022-07-06T06:53:14;20.70;99.90
9760;DHT22;4919;48.792;9.202;2022-07-06T06:55:41;20.60;99.90
9760;DHT22;4919;48.792;9.202;2022-07-06T06:58:08;20.30;99.90
9760;DHT22;4919;48.792;9.202;2022-07-06T07:00:35;20.40;99.90
9760;DHT22;4919;48.792;9.202;2022-07-06T07:03:02;20.40;99.90
9760;DHT22;4919;48.792;9.202;2022-07-06T07:05:28;20.20;99.90
9760;DHT22;4919;48.792;9.202;2022-07-06T07:07:55;20.30;99.90
9760;DHT22;4919;48.792;9.202;2022-07-06T07:10:31;20.40;99.90
9760;DHT22;4919;48.792;9.202;2022-07-06T07:12:58;20.20;99.90
9760;DHT22;4919;48.792;9.202;2022-07-06T07:15:25;19.60;99.90
9760;DHT22;4919;48.792;9.202;2022-07-06T07:17:53;20.00;99.90
9760;DHT22;4919;48.792;9.202;2022-07-06T07:20:20;20.50;99.90
9760;DHT22;4919;48.792;9.202;2022-07-06T07:22:46;20.30;99.90
9760;DHT22;4919;48.792;9.202;2022-07-06T07:25:13;20.60;99.90
9760;DHT22;4919;48.792;9.202;2022-07-06T07:27:40;19.70;99.90
9760;DHT22;4919;48.792;9.202;2022-07-06T07:30:08;19.10;99.90
9760;DHT22;4919;48.792;9.202;2022-07-06T07:32:35;19.10;99.90
9760;DHT22;4919;48.792;9.202;2022-07-06T07:35:02;19.50;99.90
9760;DHT22;4919;48.792;9.202;2022-07-06T07:37:29;20.00;99.90
9760;DHT22;4919;48.792;9.202;2022-07-06T07:39:56;20.40;99.90
9760;DHT22;4919;48.792;9.202;2022-07-06T07:42:23;20.20;99.90
9760;DHT22;4919;48.792;9.202;2022-07-06T07:44:50;20.10;99.90
9760;DHT22;4919;48.792;9.202;2022-07-06T07:47:16;20.30;99.90
9760;DHT22;4919;48.792;9.202;2022-07-06T07:49:43;20.00;99.90
9760;DHT22;4919;48.792;9.202;2022-07-06T07:52:10;19.40;99.90
9760;DHT22;4919;48.792;9.202;2022-07-06T07:54:37;19.20;99.90
9760;DHT22;4919;48.792;9.202;2022-07-06T07:57:12;18.70;99.90
9760;DHT22;4919;48.792;9.202;2022-07-06T07:59:39;18.70;99.90
9760;DHT22;4919;48.792;9.202;2022-07-06T08:02:06;18.50;99.90
9760;DHT22;4919;48.792;9.202;2022-07-06T08:04:33;19.30;99.90
9760;DHT22;4919;48.792;9.202;2022-07-06T08:07:00;19.10;99.90
9760;DHT22;4919;48.792;9.202;2022-07-06T08:09:28;18.90;99.90
9760;DHT22;4919;48.792;9.202;2022-07-06T08:11:55;18.90;99.90
9760;DHT22;4919;48.792;9.202;2022-07-06T08:14:22;19.30;99.90
9760;DHT22;4919;48.792;9.202;2022-07-06T08:16:49;19.40;99.90
9760;DHT22;4919;48.792;9.202;2022-07-06T08:19:15;19.70;99.90
9760;DHT22;4919;48.792;9.202;2022-07-06T08:21:42;20.00;99.90
9760;DHT22;4919;48.792;9.202;2022-07-06T08:24:10;19.90;99.90
9760;DHT22;4919;48.792;9.202;2022-07-06T08:26:37;20.00;99.90
9760;DHT22;4919;48.792;9.202;2022-07-06T08:29:04;19.90;99.90
9760;DHT22;4919;48.792;9.202;2022-07-06T08:31:31;19.90;99.90
9760;DHT22;4919;48.792;9.202;2022-07-06T08:34:20;19.30;99.90
9760;DHT22;4919;48.792;9.202;2022-07-06T08:36:47;18.90;99.90
9760;DHT22;4919;48.792;9.202;2022-07-06T08:39:14;19.10;99.90
9760;DHT22;4919;48.792;9.202;2022-07-06T08:41:42;19.50;99.90
9760;DHT22;4919;48.792;9.202;2022-07-06T08:44:10;19.80;99.90
9760;DHT22;4919;48.792;9.202;2022-07-06T08:46:40;20.10;99.90
9760;DHT22;4919;48.792;9.202;2022-07-06T08:49:08;19.90;99.90
9760;DHT22;4919;48.792;9.202;2022-07-06T08:51:38;19.70;99.90
9760;DHT22;4919;48.792;9.202;2022-07-06T08:54:07;19.30;99.90
9760;DHT22;4919;48.792;9.202;2022-07-06T08:56:34;19.00;99.90
9760;DHT22;4919;48.792;9.202;2022-07-06T08:59:01;19.00;99.90
9760;DHT22;4919;48.792;9.202;2022-07-06T09:01:29;18.90;99.90
9760;DHT22;4919;48.792;9.202;2022-07-06T09:03:56;19.10;99.90
9760;DHT22;4919;48.792;9.202;2022-07-06T09:06:24;19.10;99.90
9760;DHT22;4919;48.792;9.202;2022-07-06T09:08:54;18.80;99.90
9760;DHT22;4919;48.792;9.202;2022-07-06T09:11:21;18.70;99.90
9760;DHT22;4919;48.792;9.202;2022-07-06T09:13:50;18.70;99.90
9760;DHT22;4919;48.792;9.202;2022-07-06T09:16:20;18.60;99.90
9760;DHT22;4919;48.792;9.202;2022-07-06T09:19:07;18.60;99.90
9760;DHT22;4919;48.792;9.202;2022-07-06T09:21:34;18.40;99.90
9760;DHT22;4919;48.792;9.202;2022-07-06T09:24:12;18.30;99.90
9760;DHT22;4919;48.792;9.202;2022-07-06T09:26:40;18.20;99.90
9760;DHT22;4919;48.792;9.202;2022-07-06T09:29:07;18.20;99.90
9760;DHT22;4919;48.792;9.202;2022-07-06T09:31:35;18.30;99.90
9760;DHT22;4919;48.792;9.202;2022-07-06T09:34:07;18.40;99.90
9760;DHT22;4919;48.792;9.202;2022-07-06T09:39:25;18.40;99.90
9760;DHT22;4919;48.792;9.202;2022-07-06T09:41:54;18.50;99.90
9760;DHT22;4919;48.792;9.202;2022-07-06T09:46:51;18.50;99.90
9760;DHT22;4919;48.792;9.202;2022-07-06T09:49:21;18.60;99.90
9760;DHT22;4919;48.792;9.202;2022-07-06T09:51:51;18.70;99.90
9760;DHT22;4919;48.792;9.202;2022-07-06T09:54:18;18.60;99.90
9760;DHT22;4919;48.792;9.202;2022-07-06T09:56:47;18.70;99.90
9760;DHT22;4919;48.792;9.202;2022-07-06T09:59:19;19.00;99.90
9760;DHT22;4919;48.792;9.202;2022-07-06T10:01:46;19.10;99.90
9760;DHT22;4919;48.792;9.202;2022-07-06T10:04:14;19.00;99.90
9760;DHT22;4919;48.792;9.202;2022-07-06T10:06:45;19.30;99.90
9760;DHT22;4919;48.792;9.202;2022-07-06T10:09:13;19.40;99.90
9760;DHT22;4919;48.792;9.202;2022-07-06T10:11:48;19.50;99.90
9760;DHT22;4919;48.792;9.202;2022-07-06T10:14:22;19.50;99.90
9760;DHT22;4919;48.792;9.202;2022-07-06T10:16:49;19.40;99.90
9760;DHT22;4919;48.792;9.202;2022-07-06T10:19:19;19.50;99.90
9760;DHT22;4919;48.792;9.202;2022-07-06T10:21:48;19.30;99.90
9760;DHT22;4919;48.792;9.202;2022-07-06T10:24:15;19.20;99.90
9760;DHT22;4919;48.792;9.202;2022-07-06T10:26:42;19.20;99.90
9760;DHT22;4919;48.792;9.202;2022-07-06T10:29:09;19.30;99.90
9760;DHT22;4919;48.792;9.202;2022-07-06T10:31:42;19.20;99.90
9760;DHT22;4919;48.792;9.202;2022-07-06T10:34:12;19.20;99.90
9760;DHT22;4919;48.792;9.202;2022-07-06T10:36:41;19.20;99.90
9760;DHT22;4919;48.792;9.202;2022-07-06T10:39:10;19.20;99.90
9760;DHT22;4919;48.792;9.202;2022-07-06T10:41:56;19.40;99.90
9760;DHT22;4919;48.792;9.202;2022-07-06T10:44:25;19.80;99.90
9760;DHT22;4919;48.792;9.202;2022-07-06T10:46:58;20.30;99.90
9760;DHT22;4919;48.792;9.202;2022-07-06T10:49:27;20.80;99.90
9760;DHT22;4919;48.792;9.202;2022-07-06T10:52:16;20.60;99.90
9760;DHT22;4919;48.792;9.202;2022-07-06T10:54:43;20.40;99.90
9760;DHT22;4919;48.792;9.202;2022-07-06T10:57:13;20.30;99.90
9760;DHT22;4919;48.792;9.202;2022-07-06T11:00:03;20.40;99.90
9760;DHT22;4919;48.792;9.202;2022-07-06T11:02:38;20.30;99.90
9760;DHT22;4919;48.792;9.202;2022-07-06T11:05:11;20.40;99.90
9760;DHT22;4919;48.792;9.202;2022-07-06T11:07:51;20.40;99.90
9760;DHT22;4919;48.792;9.202;2022-07-06T11:10:18;20.30;99.90
9760;DHT22;4919;48.792;9.202;2022-07-06T11:12:58;20.00;99.90
9760;DHT22;4919;48.792;9.202;2022-07-06T11:15:48;20.10;99.90
9760;DHT22;4919;48.792;9.202;2022-07-06T11:18:19;20.40;99.90
9760;DHT22;4919;48.792;9.202;2022-07-06T11:21:18;21.10;99.90
9760;DHT22;4919;48.792;9.202;2022-07-06T11:23:46;21.10;99.90
9760;DHT22;4919;48.792;9.202;2022-07-06T11:26:14;21.00;99.90
9760;DHT22;4919;48.792;9.202;2022-07-06T11:28:43;20.50;99.90
9760;DHT22;4919;48.792;9.202;2022-07-06T11:31:11;20.20;99.90
9760;DHT22;4919;48.792;9.202;2022-07-06T11:33:38;19.80;99.90
9760;DHT22;4919;48.792;9.202;2022-07-06T11:36:20;19.50;99.90
9760;DHT22;4919;48.792;9.202;2022-07-06T11:38:49;19.50;99.90
9760;DHT22;4919;48.792;9.202;2022-07-06T11:41:17;19.40;99.90
9760;DHT22;4919;48.792;9.202;2022-07-06T11:43:46;19.60;99.90
9760;DHT22;4919;48.792;9.202;2022-07-06T11:48:51;19.70;99.90
9760;DHT22;4919;48.792;9.202;2022-07-06T11:51:18;20.10;99.90
9760;DHT22;4919;48.792;9.202;2022-07-06T11:53:46;20.40;99.90
9760;DHT22;4919;48.792;9.202;2022-07-06T11:56:22;20.30;99.90
9760;DHT22;4919;48.792;9.202;2022-07-06T11:58:53;20.50;99.90
9760;DHT22;4919;48.792;9.202;2022-07-06T12:01:21;20.30;99.90
9760;DHT22;4919;48.792;9.202;2022-07-06T12:03:50;20.20;99.90
9760;DHT22;4919;48.792;9.202;2022-07-06T12:06:22;20.20;99.90
9760;DHT22;4919;48.792;9.202;2022-07-06T12:08:52;19.90;99.90
9760;DHT22;4919;48.792;9.202;2022-07-06T12:13:52;20.00;99.90
9760;DHT22;4919;48.792;9.202;2022-07-06T12:16:20;20.10;99.90
9760;DHT22;4919;48.792;9.202;2022-07-06T12:18:50;20.40;99.90
9760;DHT22;4919;48.792;9.202;2022-07-06T12:21:19;20.20;99.90
9760;DHT22;4919;48.792;9.202;2022-07-06T12:23:49;20.20;99.90
9760;DHT22;4919;48.792;9.202;2022-07-06T12:26:24;20.10;99.90
9760;DHT22;4919;48.792;9.202;2022-07-06T12:29:06;20.00;99.90
9760;DHT22;4919;48.792;9.202;2022-07-06T12:31:38;20.20;99.90
9760;DHT22;4919;48.792;9.202;2022-07-06T12:34:13;20.20;99.90
9760;DHT22;4919;48.792;9.202;2022-07-06T12:39:15;20.40;99.90
9760;DHT22;4919;48.792;9.202;2022-07-06T12:41:48;20.70;99.90
9760;DHT22;4919;48.792;9.202;2022-07-06T12:44:18;20.80;99.90
9760;DHT22;4919;48.792;9.202;2022-07-06T12:46:46;20.80;99.90
9760;DHT22;4919;48.792;9.202;2022-07-06T12:49:19;20.90;99.90
9760;DHT22;4919;48.792;9.202;2022-07-06T12:52:04;20.90;99.90
9760;DHT22;4919;48.792;9.202;2022-07-06T12:54:46;20.50;99.90
9760;DHT22;4919;48.792;9.202;2022-07-06T12:57:20;20.50;99.90
9760;DHT22;4919;48.792;9.202;2022-07-06T13:05:14;20.80;99.90
9760;DHT22;4919;48.792;9.202;2022-07-06T13:07:48;20.50;99.90
9760;DHT22;4919;48.792;9.202;2022-07-06T13:10:16;20.70;99.90
9760;DHT22;4919;48.792;9.202;2022-07-06T13:12:43;20.70;99.90
9760;DHT22;4919;48.792;9.202;2022-07-06T13:15:10;20.30;99.90
9760;DHT22;4919;48.792;9.202;2022-07-06T13:17:37;20.70;99.90
9760;DHT22;4919;48.792;9.202;2022-07-06T13:20:06;20.90;99.90
9760;DHT22;4919;48.792;9.202;2022-07-06T13:22:35;21.10;99.90
9760;DHT22;4919;48.792;9.202;2022-07-06T13:25:02;21.00;99.90
9760;DHT22;4919;48.792;9.202;2022-07-06T13:27:29;20.80;99.90
9760;DHT22;4919;48.792;9.202;2022-07-06T13:29:56;20.80;99.90
9760;DHT22;4919;48.792;9.202;2022-07-06T13:32:24;20.80;99.90
9760;DHT22;4919;48.792;9.202;2022-07-06T13:34:51;20.90;99.90
9760;DHT22;4919;48.792;9.202;2022-07-06T13:37:19;20.80;99.90
9760;DHT22;4919;48.792;9.202;2022-07-06T13:39:47;20.80;99.90
9760;DHT22;4919;48.792;9.202;2022-07-06T13:42:14;20.50;99.90
9760;DHT22;4919;48.792;9.202;2022-07-06T13:44:41;20.50;99.90
9760;DHT22;4919;48.792;9.202;2022-07-06T13:47:09;20.40;99.90
9760;DHT22;4919;48.792;9.202;2022-07-06T13:49:36;20.30;99.90
9760;DHT22;4919;48.792;9.202;2022-07-06T13:52:03;20.40;99.90
9760;DHT22;4919;48.792;9.202;2022-07-06T13:54:31;20.90;99.90
9760;DHT22;4919;48.792;9.202;2022-07-06T13:57:02;21.00;99.90
9760;DHT22;4919;48.792;9.202;2022-07-06T13:59:29;20.70;99.90
9760;DHT22;4919;48.792;9.202;2022-07-06T14:01:56;20.60;99.90
9760;DHT22;4919;48.792;9.202;2022-07-06T14:04:24;20.30;99.90
9760;DHT22;4919;48.792;9.202;2022-07-06T14:06:51;20.30;99.90
9760;DHT22;4919;48.792;9.202;2022-07-06T14:09:18;20.30;99.90
9760;DHT22;4919;48.792;9.202;2022-07-06T14:11:45;20.40;99.90
9760;DHT22;4919;48.792;9.202;2022-07-06T14:14:12;20.30;99.90
9760;DHT22;4919;48.792;9.202;2022-07-06T14:16:39;20.20;99.90
9760;DHT22;4919;48.792;9.202;2022-07-06T14:19:07;20.20;99.90
9760;DHT22;4919;48.792;9.202;2022-07-06T14:21:35;20.20;99.90
9760;DHT22;4919;48.792;9.202;2022-07-06T14:24:02;20.20;99.90
9760;DHT22;4919;48.792;9.202;2022-07-06T14:26:29;20.20;99.90
9760;DHT22;4919;48.792;9.202;2022-07-06T14:28:56;20.40;99.90
9760;DHT22;4919;48.792;9.202;2022-07-06T14:31:23;20.50;99.90
9760;DHT22;4919;48.792;9.202;2022-07-06T14:33:50;20.40;99.90
9760;DHT22;4919;48.792;9.202;2022-07-06T14:36:18;20.40;99.90
9760;DHT22;4919;48.792;9.202;2022-07-06T14:38:45;20.20;99.90
9760;DHT22;4919;48.792;9.202;2022-07-06T14:41:12;20.10;99.90
9760;DHT22;4919;48.792;9.202;2022-07-06T14:43:39;19.90;99.90
9760;DHT22;4919;48.792;9.202;2022-07-06T14:46:06;19.90;99.90
9760;DHT22;4919;48.792;9.202;2022-07-06T14:48:33;19.80;99.90
9760;DHT22;4919;48.792;9.202;2022-07-06T14:51:00;19.80;99.90
9760;DHT22;4919;48.792;9.202;2022-07-06T14:53:27;19.60;99.90
9760;DHT22;4919;48.792;9.202;2022-07-06T14:55:55;19.60;99.90
9760;DHT22;4919;48.792;9.202;2022-07-06T14:58:22;19.50;99.90
9760;DHT22;4919;48.792;9.202;2022-07-06T15:00:50;19.40;99.90
9760;DHT22;4919;48.792;9.202;2022-07-06T15:03:28;19.50;99.90
9760;DHT22;4919;48.792;9.202;2022-07-06T15:05:56;19.60;99.90
9760;DHT22;4919;48.792;9.202;2022-07-06T15:08:23;19.50;99.90
9760;DHT22;4919;48.792;9.202;2022-07-06T15:10:50;19.60;99.90
9760;DHT22;4919;48.792;9.202;2022-07-06T15:13:17;19.60;99.90
9760;DHT22;4919;48.792;9.202;2022-07-06T15:15:45;19.50;99.90
9760;DHT22;4919;48.792;9.202;2022-07-06T15:18:22;19.30;99.90
9760;DHT22;4919;48.792;9.202;2022-07-06T15:20:50;19.30;99.90
9760;DHT22;4919;48.792;9.202;2022-07-06T15:23:16;19.40;99.90
9760;DHT22;4919;48.792;9.202;2022-07-06T15:25:43;19.30;99.90
9760;DHT22;4919;48.792;9.202;2022-07-06T15:28:16;19.20;99.90
9760;DHT22;4919;48.792;9.202;2022-07-06T15:30:46;19.10;99.90
9760;DHT22;4919;48.792;9.202;2022-07-06T15:33:13;19.10;99.90
9760;DHT22;4919;48.792;9.202;2022-07-06T15:35:39;19.10;99.90
9760;DHT22;4919;48.792;9.202;2022-07-06T15:38:06;19.10;99.90
9760;DHT22;4919;48.792;9.202;2022-07-06T15:40:34;18.90;99.90
9760;DHT22;4919;48.792;9.202;2022-07-06T15:43:07;19.10;99.90
9760;DHT22;4919;48.792;9.202;2022-07-06T15:45:34;19.10;99.90
9760;DHT22;4919;48.792;9.202;2022-07-06T15:48:01;19.20;99.90
9760;DHT22;4919;48.792;9.202;2022-07-06T15:50:28;19.20;99.90
9760;DHT22;4919;48.792;9.202;2022-07-06T15:52:55;19.30;99.90
9760;DHT22;4919;48.792;9.202;2022-07-06T15:55:22;19.50;99.90
9760;DHT22;4919;48.792;9.202;2022-07-06T15:57:49;19.70;99.90
9760;DHT22;4919;48.792;9.202;2022-07-06T16:00:15;20.00;99.90
9760;DHT22;4919;48.792;9.202;2022-07-06T16:02:42;20.10;99.90
9760;DHT22;4919;48.792;9.202;2022-07-06T16:05:09;20.50;99.90
9760;DHT22;4919;48.792;9.202;2022-07-06T16:07:36;20.40;99.90
9760;DHT22;4919;48.792;9.202;2022-07-06T16:10:23;20.30;99.90
9760;DHT22;4919;48.792;9.202;2022-07-06T16:12:50;19.90;99.90
9760;DHT22;4919;48.792;9.202;2022-07-06T16:15:18;19.70;99.90
9760;DHT22;4919;48.792;9.202;2022-07-06T16:17:45;19.70;99.90
9760;DHT22;4919;48.792;9.202;2022-07-06T16:20:12;20.10;99.90
9760;DHT22;4919;48.792;9.202;2022-07-06T16:22:41;20.30;99.90
9760;DHT22;4919;48.792;9.202;2022-07-06T16:25:09;20.30;99.90
9760;DHT22;4919;48.792;9.202;2022-07-06T16:27:36;20.40;99.90
9760;DHT22;4919;48.792;9.202;2022-07-06T16:30:04;20.20;99.90
9760;DHT22;4919;48.792;9.202;2022-07-06T16:32:32;19.90;99.90